Latest Weather Observations for Warburton

IDD60801

Issued at 9:31 pm CST Thursday 30 June 2016 (issued every 30 minutes, with the page automatically refreshed every 10 minutes)

About weather observations | Map of weather stations | Latest weather observations for NT | Other Formats
Station Details ID: 013011 Name: WARBURTON AIRFIELD Lat: -26.13 Lon: 126.58 Height: 459.0 m
Data from the previous 72 hours. | See also: Recent months at Warburton
Date/Time
CST
Temp
°C
App
Temp
°C
Dew
Point
°C
Rel
Hum
%
Delta-T
°C
Wind Press
QNH
hPa
Press
MSL
hPa
Rain since
9am
mm
Dir  Spd
km/h
Gust
km/h
Spd
kts
Gust
kts
30/09:30pm 15.2 14.1 10.8 75 2.4 SSE 7 11 4 6 1024.7 - 0.0
30/09:00pm 15.0 13.7 11.4 79 2.0 S 9 11 5 6 1024.1 - 0.0
30/08:30pm 15.2 14.5 12.0 81 1.8 SE 7 9 4 5 1024.0 - 0.0
30/08:00pm 15.5 15.2 11.5 77 2.2 ESE 4 6 2 3 1023.9 - 0.0
30/07:30pm 15.7 15.4 11.3 75 2.4 SE 4 7 2 4 1023.2 1022.7 0.0
30/07:00pm 16.2 15.5 11.4 73 2.6 SE 6 7 3 4 1023.0 - 0.0
30/06:30pm 17.0 15.8 10.4 65 3.6 SE 7 9 4 5 1022.6 - 0.0
30/06:00pm 17.7 15.6 9.6 59 4.4 ESE 11 17 6 9 1022.2 - 0.0
30/05:30pm 18.1 15.2 9.7 58 4.5 ESE 15 19 8 10 1022.0 - 0.0
30/05:00pm 18.2 15.6 9.5 57 4.7 ESE 13 20 7 11 1022.1 - 0.0
30/04:30pm 18.2 15.3 9.5 57 4.7 ESE 15 20 8 11 1022.2 1021.6 0.0
30/04:00pm 18.0 14.3 9.4 57 4.6 ESE 19 26 10 14 1022.1 - 0.0
30/03:30pm 18.1 14.4 9.5 57 4.6 SE 19 28 10 15 1022.2 - 0.0
30/03:00pm 17.9 13.6 9.5 58 4.5 ESE 22 30 12 16 1022.0 - 0.0
30/02:30pm 18.1 14.6 10.2 60 4.3 SSE 19 26 10 14 1023.0 - 0.0
30/02:00pm 17.8 14.6 9.9 60 4.3 SE 17 26 9 14 1023.3 - 0.0
30/01:30pm 17.2 13.4 9.9 62 3.9 ESE 20 33 11 18 1023.4 1022.9 0.0
30/01:00pm 17.3 13.2 10.0 62 3.9 SE 22 26 12 14 1024.3 - 0.0
30/12:30pm 16.5 12.3 9.7 64 3.6 ESE 22 30 12 16 1024.8 - 0.0
30/12:00pm 16.3 11.7 9.7 65 3.5 ESE 24 37 13 20 1024.5 - 0.0
30/11:30am 16.5 11.9 9.7 64 3.6 ESE 24 32 13 17 1025.1 - 0.0
30/11:00am 15.3 12.5 9.9 70 2.9 ESE 15 20 8 11 1025.8 - 0.0
30/10:30am 14.3 11.4 9.7 74 2.4 SE 15 20 8 11 1025.7 1025.2 0.2
30/10:00am 12.6 11.3 9.8 83 1.5 S 7 9 4 5 1025.5 - 0.2
30/09:30am 11.8 11.6 9.2 84 1.3 CALM 0 0 0 0 1025.2 - 0.2
30/09:00am 10.7 9.4 9.9 95 0.4 SE 7 9 4 5 1024.5 - 0.2
30/08:30am 10.2 8.8 9.4 95 0.4 S 7 9 4 5 1024.4 - 0.2
30/08:00am 8.6 8.2 8.3 98 0.1 CALM 0 0 0 0 1023.4 - 0.2
30/07:30am 8.7 8.3 8.4 98 0.1 CALM 0 0 0 0 1023.3 1022.8 0.2
30/07:00am 8.4 7.2 8.1 98 0.1 SSE 4 7 2 4 1022.6 - 0.2
30/06:30am 8.8 7.1 8.5 98 0.1 SSE 7 9 4 5 1022.5 - 0.2
30/06:00am 9.0 7.6 8.9 99 0.1 NW 6 7 3 4 1022.5 - 0.2
30/05:30am 8.4 6.6 8.1 98 0.1 S 7 9 4 5 1021.6 - 0.2
30/05:00am 9.2 9.0 9.1 99 0.1 CALM 0 0 0 0 1021.8 - 0.0
30/04:30am 8.7 7.1 8.6 99 0.0 ESE 7 7 4 4 1021.8 1021.2 0.0
30/04:00am 8.7 8.4 8.6 99 0.0 CALM 0 0 0 0 1022.0 - 0.0
30/03:30am 9.4 9.3 9.3 99 0.1 CALM 0 0 0 0 1022.1 - 0.0
30/03:00am 9.0 8.7 8.7 98 0.1 CALM 0 0 0 0 1022.1 - 0.0
30/02:30am 9.3 9.1 9.0 98 0.2 CALM 0 0 0 0 1022.2 - 0.0
30/02:00am 9.7 9.6 9.4 98 0.2 CALM 0 0 0 0 1022.1 - 0.0
30/01:30am 10.2 10.2 9.9 98 0.2 CALM 0 0 0 0 1021.9 1021.3 0.0
30/01:00am 10.8 11.0 10.5 98 0.2 CALM 0 0 0 0 1022.2 - 0.0
30/12:30am 11.0 11.2 10.7 98 0.2 CALM 0 0 0 0 1022.2 - 0.0
30/12:00am 11.4 11.8 11.1 98 0.2 CALM 0 0 0 0 1022.3 - 0.0
 
Date/Time
CST
Temp
°C
App
Temp
°C
Dew
Point
°C
Rel
Hum
%
Delta-T
°C
Wind Press
QNH
hPa
Press
MSL
hPa
Rain since
9am
mm
Dir  Spd
km/h
Gust
km/h
Spd
kts
Gust
kts
29/11:30pm 11.7 12.1 11.4 98 0.2 CALM 0 0 0 0 1022.2 - 0.0
29/11:00pm 12.6 13.3 12.3 98 0.2 CALM 0 0 0 0 1022.1 - 0.0
29/10:30pm 13.3 14.0 12.2 93 0.6 CALM 0 0 0 0 1021.9 1021.3 0.0
29/10:00pm 13.6 14.3 12.2 91 0.8 CALM 0 0 0 0 1021.7 - 0.0
29/09:30pm 13.9 14.5 11.9 88 1.1 CALM 0 0 0 0 1021.1 - 0.0
29/09:00pm 14.6 14.4 10.6 77 2.2 SSW 2 6 1 3 1020.7 - 0.0
29/08:30pm 16.2 15.0 10.3 68 3.2 SW 7 9 4 5 1020.4 - 0.0
29/08:00pm 17.5 16.2 9.9 61 4.1 WSW 7 9 4 5 1020.1 - 0.0
29/07:30pm 17.9 16.8 10.5 62 4.0 W 7 9 4 5 1019.7 1019.1 0.0
29/07:00pm 18.8 17.5 10.1 57 4.8 WNW 7 9 4 5 1019.2 - 0.0
29/06:30pm 19.6 17.9 10.0 54 5.3 WNW 9 11 5 6 1018.8 - 0.0
29/06:00pm 21.5 20.1 9.4 46 6.6 WNW 7 9 4 5 1018.3 - 0.0
29/05:30pm 21.3 19.4 9.2 46 6.6 WNW 9 13 5 7 1018.3 - 0.0
29/05:00pm 21.7 18.9 8.6 43 7.1 W 13 17 7 9 1018.3 - 0.0
29/04:30pm 22.6 19.5 8.7 41 7.5 W 15 22 8 12 1018.1 1017.5 0.0
29/04:00pm 22.8 19.1 8.1 39 7.9 WNW 17 22 9 12 1018.0 - 0.0
29/03:30pm 22.4 19.5 8.1 40 7.7 NW 13 20 7 11 1018.0 - 0.0
29/03:00pm 21.8 17.7 8.0 41 7.4 NW 19 26 10 14 1018.1 - 0.0
29/02:30pm 21.2 16.9 7.8 42 7.1 NW 20 28 11 15 1018.4 - 0.0
29/02:00pm 21.4 16.8 8.0 42 7.1 NW 22 30 12 16 1018.8 - 0.0
29/01:30pm 21.0 16.7 8.0 43 6.9 NW 20 28 11 15 1019.6 1019.0 0.0
29/01:00pm 19.2 15.1 7.9 48 5.9 NNW 19 26 10 14 1020.2 - 0.0
29/12:30pm 18.0 13.7 7.7 51 5.4 NNW 20 28 11 15 1020.9 - 0.0
29/12:00pm 17.3 14.3 7.6 53 5.0 NNW 13 24 7 13 1021.5 - 0.0
29/11:30am 15.6 13.5 8.4 62 3.7 NNW 9 13 5 7 1021.9 - 0.0
29/11:00am 14.5 13.0 8.5 67 3.1 NNE 6 7 3 4 1022.0 - 0.0
29/10:30am 13.1 12.6 8.0 71 2.6 CALM 0 0 0 0 1022.3 1021.7 0.0
29/10:00am 12.7 12.4 8.6 76 2.1 CALM 0 6 0 3 1022.2 - 0.0
29/09:30am 11.9 10.8 8.4 79 1.8 SE 4 6 2 3 1022.0 - 0.0
29/09:00am 10.3 9.2 8.6 89 0.9 SE 4 6 2 3 1021.6 - 0.0
29/08:30am 8.2 6.6 7.9 98 0.1 ESE 6 7 3 4 1021.1 - 0.0
29/08:00am 6.8 4.7 6.5 98 0.1 E 7 9 4 5 1020.8 - 0.0
29/07:30am 7.1 6.4 6.8 98 0.1 CALM 0 0 0 0 1020.5 1019.9 0.0
29/07:00am 8.1 6.4 7.7 97 0.2 SW 6 9 3 5 1020.3 - 0.0
29/06:30am 7.1 6.4 6.8 98 0.1 CALM 0 0 0 0 1019.8 - 0.0
29/06:00am 7.5 6.4 7.1 97 0.2 NNW 2 6 1 3 1019.9 - 0.0
29/05:30am 8.1 6.4 7.5 96 0.3 NNW 6 7 3 4 1020.0 - 0.0
29/05:00am 8.6 7.6 7.2 91 0.7 NNW 2 6 1 3 1019.9 - 0.0
29/04:30am 9.6 7.8 7.2 85 1.2 NNW 6 7 3 4 1019.7 1019.1 0.0
29/04:00am 10.1 7.8 7.5 84 1.3 N 9 13 5 7 1019.7 - 0.0
29/03:30am 10.2 7.8 7.1 81 1.5 N 9 9 5 5 1019.8 - 0.0
29/03:00am 10.6 8.7 6.9 78 1.8 N 6 9 3 5 1020.0 - 0.0
29/02:30am 11.1 8.7 7.0 76 2.0 N 9 11 5 6 1020.3 - 0.0
29/02:00am 11.1 8.7 7.0 76 2.0 N 9 11 5 6 1020.3 - 0.0
29/01:30am 10.9 8.5 6.8 76 2.0 N 9 11 5 6 1020.2 1019.6 0.0
29/01:00am 11.1 8.3 7.0 76 2.0 N 11 13 6 7 1020.2 - 0.0
29/12:30am 11.1 8.7 7.0 76 2.0 N 9 11 5 6 1020.4 - 0.0
29/12:00am 11.0 8.6 7.1 77 1.9 N 9 11 5 6 1020.5 - 0.0
 
Date/Time
CST
Temp
°C
App
Temp
°C
Dew
Point
°C
Rel
Hum
%
Delta-T
°C
Wind Press
QNH
hPa
Press
MSL
hPa
Rain since
9am
mm
Dir  Spd
km/h
Gust
km/h
Spd
kts
Gust
kts
28/11:30pm 11.0 8.7 7.5 79 1.7 N 9 9 5 5 1020.5 - 0.0
28/11:00pm 11.5 9.1 7.0 74 2.2 N 9 9 5 5 1020.5 - 0.0
28/10:30pm 12.1 9.4 7.2 72 2.4 N 11 13 6 7 1020.5 1019.9 0.0
28/10:00pm 12.7 10.3 7.2 69 2.7 NNE 9 13 5 7 1020.6 - 0.0
28/09:30pm 12.6 9.8 7.1 69 2.7 NNE 11 15 6 8 1020.4 - 0.0
28/09:00pm 12.9 10.5 6.9 67 3.0 N 9 13 5 7 1020.5 - 0.0
28/08:30pm 12.7 10.5 7.8 72 2.5 N 9 11 5 6 1020.5 - 0.0
28/08:00pm 13.7 11.3 7.0 64 3.3 N 9 11 5 6 1020.2 - 0.0
28/07:30pm 14.6 12.7 7.6 63 3.5 N 7 9 4 5 1019.9 1019.3 0.0
28/07:00pm 15.8 12.9 6.3 53 4.7 N 11 13 6 7 1019.6 - 0.0
28/06:30pm 17.3 14.3 5.9 47 5.7 NNW 11 13 6 7 1019.3 - 0.0
28/06:00pm 19.2 15.9 4.6 38 7.2 NW 11 15 6 8 1019.3 - 0.0
28/05:30pm 19.6 15.5 4.5 37 7.4 NNW 15 20 8 11 1019.3 - 0.0
28/05:00pm 20.0 15.2 4.5 36 7.7 NNW 19 24 10 13 1019.0 - 0.0
28/04:30pm 20.0 15.6 4.5 36 7.6 NNW 17 26 9 14 1019.2 1018.5 0.0
28/04:00pm 20.1 15.6 4.2 35 7.8 NNW 17 24 9 13 1019.3 - 0.0
28/03:30pm 19.7 14.5 3.8 35 7.7 N 20 32 11 17 1019.3 - 0.0
28/03:00pm 19.5 14.5 4.8 38 7.3 N 20 33 11 18 1019.5 - 0.0
28/02:30pm 19.1 13.9 3.7 36 7.5 NNW 20 28 11 15 1019.8 - 0.0
28/02:00pm 18.6 12.7 4.0 38 7.1 N 24 35 13 19 1020.3 - 0.0
28/01:30pm 18.3 12.4 4.1 39 6.9 N 24 37 13 20 1020.6 1020.0 0.0
28/01:00pm 17.7 11.4 3.9 40 6.6 N 26 35 14 19 1021.0 - 0.0
28/12:30pm 16.8 9.9 4.5 44 5.9 N 30 43 16 23 1021.7 - 0.0
28/12:00pm 15.6 8.6 4.3 47 5.4 N 30 43 16 23 1022.0 - 0.0
28/11:30am 14.5 7.3 4.8 52 4.6 NNE 32 46 17 25 1022.4 - 0.0
28/11:00am 13.6 6.7 4.5 54 4.3 N 30 41 16 22 1023.0 - 0.0
28/10:30am 12.9 6.9 5.1 59 3.7 NNE 26 43 14 23 1023.3 1022.8 0.0
28/10:00am 12.4 7.5 5.3 62 3.4 NNE 20 32 11 17 1023.2 - 0.0
28/09:30am 10.3 5.5 5.7 73 2.2 NE 20 28 11 15 1023.0 - 0.0
28/09:00am 9.1 4.4 5.3 77 1.8 NE 19 28 10 15 1022.6 - 0.0
28/08:30am 8.3 4.3 5.1 80 1.5 NE 15 22 8 12 1022.4 - 0.0
28/08:00am 7.7 3.8 5.2 84 1.1 NE 15 20 8 11 1022.3 - 0.0
28/07:30am 7.6 3.3 5.2 85 1.1 NE 17 22 9 12 1021.9 1021.3 0.0
28/07:00am 7.5 3.6 5.3 86 1.0 ENE 15 19 8 10 1021.6 - 0.0
28/06:30am 7.2 4.0 5.3 88 0.9 NE 11 15 6 8 1021.5 - 0.0
28/06:00am 6.9 4.2 5.5 91 0.6 NE 9 13 5 7 1021.3 - 0.0
28/05:30am 6.6 3.9 5.6 93 0.5 NE 9 11 5 6 1021.3 - 0.0
28/05:00am 5.3 3.0 4.9 97 0.2 E 6 7 3 4 1021.3 - 0.0
28/04:30am 6.0 3.6 5.3 95 0.3 ENE 7 9 4 5 1021.6 1021.0 0.0
28/04:00am 6.9 4.1 5.1 88 0.8 ENE 9 11 5 6 1021.6 - 0.0
28/03:30am 7.0 4.5 5.0 87 0.9 NE 7 9 4 5 1021.6 - 0.0
28/03:00am 7.5 4.8 5.5 87 0.9 NNE 9 11 5 6 1021.5 - 0.0
28/02:30am 7.4 5.0 5.2 86 1.0 NE 7 11 4 6 1021.3 - 0.0
28/02:00am 7.8 5.0 5.3 84 1.1 NE 9 15 5 8 1021.6 - 0.0
28/01:30am 8.0 5.2 5.1 82 1.3 NNE 9 13 5 7 1021.8 1021.2 0.0
28/01:00am 9.2 6.4 5.0 75 1.9 NE 9 13 5 7 1021.7 - 0.0
28/12:30am 10.3 6.7 5.1 70 2.4 ENE 13 20 7 11 1021.8 - 0.0
28/12:00am 10.0 6.8 5.0 71 2.3 E 11 15 6 8 1021.8 - 0.0
 
Date/Time
CST
Temp
°C
App
Temp
°C
Dew
Point
°C
Rel
Hum
%
Delta-T
°C
Wind Press
QNH
hPa
Press
MSL
hPa
Rain since
9am
mm
Dir  Spd
km/h
Gust
km/h
Spd
kts
Gust
kts
27/11:30pm 9.7 6.5 5.1 73 2.1 E 11 15 6 8 1021.9 - 0.0

Other Formats:

Comma delimited format used in spreadsheet applications
http://www.bom.gov.au/fwo/IDD60801/IDD60801.94457.axf

JavaScript Object Notation format (JSON) in row-major order
http://www.bom.gov.au/fwo/IDD60801/IDD60801.94457.json